Cedar City, Utah Weather observations

Data are for observation ending at time listed.
 Day   Time    Ave.   Ave.  Ave.  Vector   Max.   Stn.    Total    Solar   Ave.  
  of    of     Air    Rel.  Wind   Wind    Wind   Baro.  Precip.   Rad.    Soil  
Year   Day     Temp.  Hum.  Speed  Dir.    Gust   Pres.                    Temp. 
2016   (MST)    F      %     mph   deg.    mph     mb.     in.     W/m2     F   
------------------------------------------------------------------------------
 177   19:40   79.4    14    2.3     0      6.3   826.1    0.00      31    81.7
 177   19:50   78.7    15    2.3   353      6.1   826.1    0.00      15    81.6
 177   20:00   77.6    14    3.1    10      7.5   826.1    0.00       7    81.4
 177   20:10   77.3    14    3.3    13      8.0   826.2    0.00       3    81.2
 177   20:20   77.1    14    2.2    29      6.8   826.2    0.00       0    81.1
 177   20:30   77.1    14    2.2    30      7.5   826.3    0.00       0    80.9
 177   20:40   76.2    16    1.7    39      4.8   826.3    0.00       0    80.7
 177   20:50   76.1    16    3.4    33      9.8   826.4    0.00       0    80.5
 177   21:00   76.3    16    3.1    89      5.3   826.5    0.00       0    80.3
 177   21:10   74.6    18    3.2    92      5.7   826.5    0.00       0    80.1
 177   21:20   73.3    20    2.3    85      5.1   826.6    0.00       0    79.9
 177   21:30   72.5    19    1.8    93      6.3   826.6    0.00       0    79.7
 177   21:40   72.3    20    4.4   101     10.4   826.6    0.00       0    79.6
 177   21:50   72.0    19    6.3   102     12.9   826.7    0.00       0    79.4
 177   22:00   72.2    19    5.4   110      9.5   826.8    0.00       0    79.2
 177   22:10   72.1    19    4.9   111     12.1   826.8    0.00       0    79.0
 177   22:20   71.2    20    3.9   112      8.3   826.9    0.00       0    78.8
 177   22:30   70.7    20    4.1    64     10.8   827.0    0.00       0    78.6
 177   22:40   70.4    20    2.4   110      7.5   827.1    0.00       0    78.4
 177   22:50   70.0    20    2.8   125      5.6   827.2    0.00       0    78.2
 177   23:00   69.4    20    2.2   100      5.9   827.3    0.00       0    78.0
 177   23:10   69.2    21    3.4    97      5.6   827.3    0.00       0    77.8
 177   23:20   68.8    21    1.6   120      5.4   827.4    0.00       0    77.7
 177   23:30   68.2    22    1.5   142      3.5   827.4    0.00       0    77.5
 177   23:40   68.2    22    1.6   138      4.0   827.4    0.00       0    77.4
 177   23:50   67.8    21    3.3   100      6.1   827.3    0.00       0    77.3
 178    0:00   67.6    21    4.1    95      6.6   827.3    0.00       0    77.1
 178    0:10   67.5    21    3.9   103      7.2   827.4    0.00       0    77.0
 178    0:20   67.1    22    3.1   115      6.2   827.5    0.00       0    76.9
 178    0:30   66.8    22    2.2   112      5.6   827.5    0.00       0    76.8
 178    0:40   65.9    24    1.7   148      5.0   827.6    0.00       0    76.7
 178    0:50   65.9    23    3.3   105      6.4   827.7    0.00       0    76.6
 178    1:00   65.6    23    4.5    97      6.3   827.7    0.00       0    76.5
 178    1:10   65.6    23    2.2   113      5.0   827.7    0.00       0    76.4
 178    1:20   65.6    23    2.8   113      4.7   827.7    0.00       0    76.3
 178    1:30   65.4    23    4.2   111      7.3   827.6    0.00       0    76.2
 178    1:40   65.3    23    4.2   105      7.5   827.6    0.00       0    76.2
 178    1:50   65.2    23    3.9   112      8.7   827.6    0.00       0    76.1
 178    2:00   64.1    26    1.4   184      3.9   827.6    0.00       0    76.0
 178    2:10   63.0    26    0.8   144      2.0   827.6    0.00       0    75.9
 178    2:20   63.8    25    2.5   100      5.5   827.6    0.00       0    75.8
 178    2:30   64.4    24    2.6   114      5.3   827.6    0.00       0    75.7
 178    2:40   64.1    24    2.0   132      5.4   827.7    0.00       0    75.7
 178    2:50   63.9    25    2.8   120      5.5   827.7    0.00       0    75.6
 178    3:00   62.6    27    1.5   169      3.2   827.7    0.00       0    75.5
 178    3:10   62.5    26    1.5   142      3.1   827.9    0.00       0    75.4
 178    3:20   63.2    26    2.3   129      4.3   827.9    0.00       0    75.3
 178    3:30   63.0    26    3.0   113      5.4   828.0    0.00       0    75.3
 178    3:40   63.0    26    3.1   114      5.9   827.9    0.00       0    75.2
 178    3:50   62.8    26    3.1   118      6.1   827.9    0.00       0    75.1
 178    4:00   62.9    25    2.9   119      5.4   828.0    0.00       0    75.1
 178    4:10   62.6    27    2.3   138      5.8   828.1    0.00       0    75.0
 178    4:20   60.6    30    1.6   181      4.1   828.2    0.00       0    74.9
 178    4:30   59.8    31    2.4   184      5.3   828.2    0.00       0    74.8
 178    4:40   60.1    30    1.5   167      3.1   828.3    0.00       0    74.7
 178    4:50   59.0    33    1.5   194      2.4   828.4    0.00       0    74.6
 178    5:00   58.0    34    1.9   192      3.3   828.4    0.00       0    74.6
 178    5:10   57.9    35    2.0   200      3.1   828.6    0.00       0    74.5
 178    5:20   57.7    35    1.5   171      2.3   828.7    0.00       5    74.4
 178    5:30   59.0    31    1.6   138      2.9   828.8    0.00       8    74.4
 178    5:40   59.8    30    1.7   139      2.7   828.8    0.00      13    74.3
 178    5:50   58.6    34    1.6   170      2.7   828.9    0.00      17    74.2
 178    6:00   59.1    33    1.4   165      2.5   829.0    0.00      41    74.1
 178    6:10   59.2    36    0.8   181      1.3   829.1    0.00      86    74.1
 178    6:20   61.3    29    2.4   108      4.3   829.1    0.00     127    74.1
 178    6:30   64.1    27    1.7   122      3.1   829.2    0.00     152    74.1
 178    6:40   66.0    25    2.0    78      4.0   829.2    0.00     208    74.0
 178    6:50   66.7    28    0.9   148      2.6   829.2    0.00     239    73.9
 178    7:00   69.5    25    0.7   126      3.7   829.3    0.00     270    73.9
 178    7:10   69.8    23    1.6    50      3.7   829.2    0.00     308    73.9
 178    7:20   68.4    26    1.9    25      3.8   829.3    0.00     342    73.8
 178    7:30   67.6    26    2.1   326      3.5   829.4    0.00     371    73.8
 178    7:40   69.3    22    1.0   203      2.3   829.5    0.00     406    73.8
 178    7:50   71.2    20    1.3   208      2.6   829.6    0.00     436    73.9
 178    8:00   71.2    21    1.7   292      3.3   829.6    0.00     469    73.9
 178    8:10   69.4    22    2.4   307      3.9   829.7    0.00     501    74.0
 178    8:20   71.4    20    0.6   339      2.2   829.7    0.00     538    74.0
 178    8:30   73.6    19    0.7    35      1.8   829.7    0.00     573    74.1
 178    8:40   74.5    19    0.8    56      2.6   829.6    0.00     603    74.1
 178    8:50   76.9    17    0.2    89      1.8   829.7    0.00     627    74.2
 178    9:00   75.3    18    1.6   294      3.9   829.6    0.00     656    74.2
 178    9:10   74.6    19    1.7   305      3.6   829.7    0.00     685    74.2
 178    9:20   75.5    19    1.8   331      4.6   829.6    0.00     716    74.2
 178    9:30   75.5    19    1.1    28      3.4   829.6    0.00     746    74.3
 178    9:40   76.3    18    2.2   301      5.0   829.6    0.00     769    74.3
 178    9:50   76.2    17    2.1   305      5.0   829.6    0.00     794    74.3
 178   10:00   76.4    18    2.7   336      4.5   829.5    0.00     818    74.3
 178   10:10   77.2    19    1.7    11      3.7   829.5    0.00     839    74.3
 178   10:20   79.0    18    1.5   301      4.2   829.7    0.00     859    74.4
 178   10:30   79.6    17    1.0   300      3.9   829.5    0.00     878    74.4
 178   10:40   79.9    17    1.4   297      5.0   829.4    0.00     884    74.4
 178   10:50   80.8    16    1.4   270      4.6   829.3    0.00     912    74.5
 178   11:00   81.8    18    1.0   334      4.1   829.3    0.00     860    74.5
 178   11:10   81.7    18    3.0   305      6.7   829.3    0.00     796    74.6
 178   11:20   81.4    17    2.4   290      5.5   829.1    0.00     957    74.6
 178   11:30   83.0    17    1.3     0      5.2   829.3    0.00     972    74.7
 178   11:40   83.6    17    1.6   300      6.6   829.2    0.00     975    74.7
 178   11:50   83.9    16    1.8   326      6.9   829.1    0.00     983    74.8
 178   12:00   84.3    15    1.8   330      6.3   829.0    0.00     974    74.9
 178   12:10   85.4    16    1.2     8      4.0   829.0    0.00     990    75.0
 178   12:20   86.3    14    1.0    36      6.0   828.8    0.00    1004    75.0
 178   12:30   87.2    13    0.4   348      4.8   828.8    0.00    1005    75.1
 178   12:40   87.8    12    1.0    22      4.4   828.8    0.00    1001    75.2
 178   12:50   87.7    10    3.6    87      7.9   828.7    0.00    1001    75.3
 178   13:00   88.1    11    1.9   101      7.7   828.8    0.00     995    75.4
 178   13:10   88.6    10    1.6   130      6.7   828.8    0.00     989    75.5
 178   13:20   88.2    11    2.0    26      9.7   828.6    0.00     951    75.7
 178   13:30   87.9    10    3.3    70      8.7   828.4    0.00     970    75.8
 178   13:40   88.2    11    2.9    28      9.1   828.5    0.00     970    75.9
 178   13:50   88.3    11    2.6    53      8.8   828.3    0.00     942    76.0
 178   14:00   89.7    11    2.5   316      8.3   828.3    0.00     789    76.2
 178   14:10   88.4    10    3.0    32      8.2   828.1    0.00     865    76.3
 178   14:20   89.7    10    1.7    15      6.6   828.1    0.00     924    76.4
 178   14:30   91.2     9    0.8   216      3.8   828.0    0.00     905    76.6
 178   14:40   90.4    10    3.1   298     11.2   827.9    0.00     880    76.7
 178   14:50   89.8    10    2.1   306     10.0   828.0    0.00     870    76.9
 178   15:00   89.9    11    1.6   337      6.6   827.9    0.00     854    77.1
 178   15:10   89.9    10    2.8    37      8.6   827.8    0.00     830    77.3
 178   15:20   89.9     9    3.5    90      8.3   827.8    0.00     813    77.4
 178   15:30   90.0     9    3.1    48      8.5   827.8    0.00     777    77.6
 178   15:40   90.5     9    1.3   352      8.5   827.6    0.00     752    77.8
 178   15:50   90.7     9    2.2    64      7.7   827.5    0.00     737    78.0
 178   16:00   90.8    10    2.3    40      7.5   827.5    0.00     702    78.2
 178   16:10   90.7     9    3.2    34     10.0   827.3    0.00     682    78.4
 178   16:20   91.3    10    1.2   333      7.5   827.2    0.00     654    78.6
 178   16:30   91.2     9    2.6     3     10.0   827.1    0.00     626    78.8
 178   16:40   91.8     8    2.6   281      8.1   827.1    0.00     593    79.1
 178   16:50   93.1     8    0.3   237      2.6   826.9    0.00     560    79.3
 178   17:00   92.5     9    1.4    30      4.5   826.8    0.00     532    79.5
 178   17:10   91.2     9    3.2    23      9.4   826.9    0.00     498    79.6
 178   17:20   90.7     8    3.5    55      7.9   826.7    0.00     463    79.8
 178   17:30   91.8     9    2.1    34     10.3   826.6    0.00     431    80.0
 178   17:40   91.0     9    4.8   342      8.8   826.6    0.00     401    80.2
 178   17:50   90.8     8    2.7   310      9.4   826.6    0.00     368    80.5
 178   18:00   91.9     9    1.9    42      6.3   826.5    0.00     331    80.7
 178   18:10   91.0     9    2.1   294      7.4   826.6    0.00     297    80.9
 178   18:20   91.4     8    2.9   106      6.1   826.6    0.00     260    81.1
 178   18:30   91.5     8    1.5     2      5.5   826.6    0.00     230    81.3
 178   18:40   91.5     9    1.7   349      5.0   826.6    0.00     201    81.4
 178   18:50   90.7    10    1.9     5      5.3   826.7    0.00     170    81.5
 178   19:00   89.8     9    2.6    42      6.0   826.7    0.00     139    81.6
 178   19:10   90.2     8    1.0    54      4.0   826.7    0.00     112    81.6
 178   19:20   91.3    10    0.3   185      1.3   826.7    0.00      81    81.6
 178   19:30   91.1    11    0.3    23      2.0   826.8    0.00      51    81.6

Return to Cedar City, Utah graphs page.


Western Regional Climate Center,wrcc@dri.edu